Date,TemperatureHighF,TemperatureAvgF,TemperatureLowF,DewpointHighF,DewpointAvgF,DewpointLowF,HumidityHigh,HumidityAvg,HumidityLow,PressureMaxIn,PressureMinIn,WindSpeedMaxMPH,WindSpeedAvgMPH,GustSpeedMaxMPH,PrecipitationSumIn
2013-2-1,60.4,54.8,48.9,52.5,49.8,45.8,91,84,70,30.20,29.82,14,4,14,0.00
2013-2-2,60.6,55.1,46.8,52.2,50.1,42.5,90,84,69,29.82,29.30,36,14,36,0.30
2013-2-3,49.3,45.4,42.6,44.1,39.0,30.5,87,79,57,29.96,29.44,32,8,32,0.51
2013-2-4,54.6,45.5,39.4,36.7,31.0,26.1,78,58,34,30.16,29.96,15,5,15,0.00
2013-2-5,54.4,46.3,35.5,48.2,38.4,29.0,89,74,58,30.14,29.81,18,4,18,0.08
2013-2-6,51.1,48.8,47.0,48.0,46.3,44.6,92,91,89,29.81,29.67,4,1,4,0.01
2013-2-7,50.2,44.6,42.2,41.0,38.6,36.6,84,79,68,29.55,29.50,21,7,21,0.18
2013-2-8,49.7,43.7,39.2,36.9,33.0,29.2,80,66,53,29.75,29.55,17,6,17,0.01
2013-2-9,48.2,40.1,35.7,32.5,29.5,27.0,83,66,50,29.89,29.73,24,7,24,0.03
2013-2-10,47.2,39.7,35.1,29.8,26.7,23.4,77,61,40,29.99,29.87,26,9,26,0.01
2013-2-11,53.6,43.9,35.9,45.4,35.2,25.1,86,71,58,30.00,29.64,32,11,32,0.25
2013-2-12,48.3,45.4,42.6,44.6,41.0,37.2,90,85,80,29.69,29.58,23,6,23,0.68
2013-2-13,55.6,46.7,41.2,42.8,39.6,37.7,91,77,56,29.84,29.65,16,3,16,0.02
2013-2-14,55.1,48.0,43.1,40.4,36.6,33.8,80,65,51,29.99,29.83,22,10,22,0.00
2013-2-15,54.5,47.2,38.8,41.4,37.7,32.1,81,70,52,30.01,29.97,17,4,17,0.00
2013-2-16,55.7,49.6,45.3,40.5,37.8,35.1,81,64,51,30.08,29.97,20,7,20,0.01
2013-2-17,57.1,48.6,42.6,40.6,35.8,32.8,75,62,43,30.07,29.97,18,6,18,0.00
2013-2-18,54.3,47.1,42.7,40.5,38.0,35.3,77,71,53,30.00,29.93,17,6,17,0.00
2013-2-19,53.8,45.1,40.0,37.4,34.3,29.1,80,67,40,30.00,29.93,20,6,20,0.00
2013-2-20,54.6,45.7,39.0,38.7,36.0,33.6,82,70,49,30.01,29.92,13,3,13,0.00
2013-2-21,53.4,44.9,39.8,38.7,35.0,32.6,79,68,54,29.92,29.70,14,4,14,0.00
2013-2-22,52.3,46.1,38.3,49.8,42.4,32.2,91,87,77,29.70,29.50,22,5,22,1.06
2013-2-23,56.2,52.0,44.1,49.2,46.5,40.5,91,82,70,29.67,29.50,31,8,31,0.36
2013-2-24,53.3,46.3,39.9,47.3,38.6,30.6,88,75,50,29.97,29.66,29,8,29,0.10
2013-2-25,53.2,44.7,38.8,41.6,36.9,33.2,85,75,57,30.05,29.96,18,5,18,0.07
2013-2-26,54.9,48.8,43.7,41.7,37.3,35.1,80,65,50,30.11,30.00,15,4,15,0.01
2013-2-27,56.4,50.5,43.8,40.2,38.6,37.1,78,64,52,30.21,30.11,16,5,16,0.00
2013-2-28,60.8,51.0,43.3,42.9,38.5,35.8,75,63,44,30.23,30.15,17,6,17,0.00